Time;durP1;ratioP1;P1;durP2;ratioP2;P2;SDS_P1;SDS_P2;PMS_P1;PMS_P2;Temp;Humidity;BMP_temperature;BMP_pressure;BME280_temperature;BME280_humidity;BME280_pressure;Samples;Min_cycle;Max_cycle;Signal;HPM_P1;HPM_P2
2022/08/06 00:01:51;;;;;;;1999.90;999.90;;;12.70;99.90;;;;;;5052127;28;20045;-83
2022/08/06 00:04:17;;;;;;;1948.45;970.05;;;14.00;99.90;;;;;;5056648;28;20059;-84
2022/08/06 00:06:43;;;;;;;1889.93;794.55;;;13.60;99.90;;;;;;5071027;28;20050;-83
2022/08/06 00:09:10;;;;;;;1999.90;999.90;;;12.70;99.90;;;;;;5071219;28;20045;-83
2022/08/06 00:11:36;;;;;;;1987.00;924.25;;;12.60;99.90;;;;;;5054758;28;20060;-83
2022/08/06 00:14:02;;;;;;;1898.35;882.50;;;12.60;99.90;;;;;;5072067;28;20045;-83
2022/08/06 00:16:28;;;;;;;1830.80;592.47;;;12.60;99.90;;;;;;5071705;28;20055;-84
2022/08/06 00:18:54;;;;;;;1993.47;908.45;;;12.60;99.90;;;;;;5072556;28;20048;-84
2022/08/06 00:21:19;;;;;;;1947.57;960.50;;;12.90;99.90;;;;;;5072111;28;20534;-83
2022/08/06 00:23:45;;;;;;;1999.90;999.90;;;12.50;99.90;;;;;;5070107;28;20144;-83
2022/08/06 00:26:11;;;;;;;1999.90;999.90;;;12.50;99.90;;;;;;5071969;28;20048;-83
2022/08/06 00:28:36;;;;;;;1803.05;998.70;;;12.50;99.90;;;;;;5072088;28;20047;-83
2022/08/06 00:31:04;;;;;;;1999.90;999.90;;;12.40;99.90;;;;;;5072291;28;20045;-83
2022/08/06 00:33:30;;;;;;;1892.30;985.97;;;12.40;99.90;;;;;;5071678;28;20070;-84
2022/08/06 00:35:55;;;;;;;1936.00;959.67;;;12.40;99.90;;;;;;5072299;28;20452;-83
2022/08/06 00:38:21;;;;;;;1999.90;999.90;;;12.40;99.90;;;;;;5070354;28;20049;-82
2022/08/06 00:40:48;;;;;;;1690.78;975.75;;;12.40;99.90;;;;;;5059487;28;20390;-82
2022/08/06 00:43:14;;;;;;;1999.90;999.90;;;12.30;99.90;;;;;;5050414;28;20099;-83
2022/08/06 00:45:40;;;;;;;1999.90;999.90;;;12.30;99.90;;;;;;5052035;28;20048;-83
2022/08/06 00:48:05;;;;;;;1999.90;999.90;;;12.30;99.90;;;;;;5052022;28;20124;-82
2022/08/06 00:50:32;;;;;;;1999.90;999.90;;;12.20;99.90;;;;;;5051710;28;20619;-83
2022/08/06 00:52:59;;;;;;;1836.80;902.13;;;12.70;99.90;;;;;;5051435;28;20171;-82
2022/08/06 00:55:25;;;;;;;1858.00;965.03;;;12.20;99.90;;;;;;5051198;28;20051;-83
2022/08/06 00:57:50;;;;;;;1999.90;999.90;;;12.10;99.90;;;;;;5051871;28;20053;-83
2022/08/06 01:00:16;;;;;;;1999.90;999.90;;;12.10;99.90;;;;;;5051626;28;20041;-82
2022/08/06 01:02:42;;;;;;;1982.03;989.80;;;12.10;99.90;;;;;;5051704;28;20061;-84
2022/08/06 01:05:08;;;;;;;1833.00;927.53;;;12.10;99.90;;;;;;5063738;28;20056;-83
2022/08/06 01:07:33;;;;;;;1558.53;825.28;;;12.10;99.90;;;;;;5070796;28;20056;-82
2022/08/06 01:09:59;;;;;;;1368.68;708.08;;;12.10;1.00;;;;;;5071491;28;20067;-83
2022/08/06 01:12:27;;;;;;;1520.10;827.65;;;13.20;1.00;;;;;;5051308;28;20474;-83
2022/08/06 01:14:52;;;;;;;1564.25;777.95;;;12.40;1.00;;;;;;5052106;28;20076;-82
2022/08/06 01:17:32;;;;;;;1890.80;950.17;;;12.10;1.00;;;;;;5051370;28;20060;-85
2022/08/06 01:20:22;;;;;;;1999.90;999.90;;;11.90;1.00;;;;;;5051868;28;20123;-83
2022/08/06 01:23:24;;;;;;;1842.78;943.65;;;11.90;1.00;;;;;;5051225;28;20041;-83
2022/08/06 01:26:04;;;;;;;1480.72;830.35;;;11.90;1.00;;;;;;5052093;28;20049;-83
2022/08/06 01:28:34;;;;;;;1999.90;999.90;;;11.80;1.00;;;;;;5054710;28;20045;-83
2022/08/06 01:31:06;;;;;;;1639.22;901.58;;;11.80;1.00;;;;;;5055375;28;20041;-83
2022/08/06 01:33:41;;;;;;;1662.38;893.42;;;12.40;1.00;;;;;;5054568;28;20124;-83
2022/08/06 01:36:11;;;;;;;1707.40;830.47;;;11.80;1.00;;;;;;5055297;28;20094;-83
2022/08/06 01:38:50;;;;;;;1595.28;755.28;;;11.80;1.00;;;;;;5069279;28;20049;-84
2022/08/06 01:41:39;;;;;;;1641.38;807.38;;;11.80;1.00;;;;;;5053866;28;20393;-89
2022/08/06 01:44:11;;;;;;;1999.90;999.90;;;11.80;1.00;;;;;;5054931;28;20048;-83
2022/08/06 01:46:40;;;;;;;1782.28;935.10;;;11.80;1.00;;;;;;5054679;28;20232;-84
2022/08/06 01:49:09;;;;;;;1516.70;725.80;;;11.70;1.00;;;;;;5054886;28;20107;-83
2022/08/06 01:51:37;;;;;;;1999.90;999.90;;;11.70;1.00;;;;;;5070142;28;20045;-83
2022/08/06 01:54:05;;;;;;;1405.68;734.35;;;11.70;1.00;;;;;;5053012;28;20055;-83
2022/08/06 01:56:36;;;;;;;1733.28;863.92;;;11.70;1.00;;;;;;5054362;28;20048;-83
2022/08/06 01:59:05;;;;;;;1642.85;751.35;;;11.70;1.00;;;;;;5054621;28;20095;-83
2022/08/06 02:01:33;;;;;;;1768.53;836.08;;;11.60;1.00;;;;;;5054192;28;20048;-83
2022/08/06 02:04:00;;;;;;;1833.63;874.90;;;11.90;1.00;;;;;;5069737;28;20048;-83
2022/08/06 02:06:40;;;;;;;1670.22;815.83;;;11.60;1.00;;;;;;5054231;28;20045;-83
2022/08/06 02:09:11;;;;;;;1738.93;864.40;;;11.60;1.00;;;;;;5053690;28;20045;-83
2022/08/06 02:11:40;;;;;;;1871.60;965.38;;;13.20;1.00;;;;;;5054182;28;20127;-83
2022/08/06 02:14:07;;;;;;;1748.28;917.95;;;11.60;1.00;;;;;;5054427;28;20049;-83
2022/08/06 02:16:40;;;;;;;1788.88;911.15;;;11.60;1.00;;;;;;5053957;28;20044;-84
2022/08/06 02:19:08;;;;;;;1935.18;999.90;;;11.60;1.00;;;;;;5054239;28;20044;-83
2022/08/06 02:21:35;;;;;;;1854.45;797.15;;;11.60;1.00;;;;;;5052684;28;20075;-82
2022/08/06 02:24:05;;;;;;;1889.60;871.05;;;11.60;1.00;;;;;;5053179;28;20084;-83
2022/08/06 02:26:32;;;;;;;1997.65;917.50;;;11.50;1.00;;;;;;5053518;28;20092;-83
2022/08/06 02:28:59;;;;;;;1952.03;996.60;;;11.50;1.00;;;;;;5053061;28;20052;-83
2022/08/06 02:31:25;;;;;;;1999.90;999.90;;;11.60;1.00;;;;;;5053804;28;20064;-83
2022/08/06 02:33:51;;;;;;;1993.68;996.55;;;11.50;1.00;;;;;;5053843;28;20288;-84
2022/08/06 02:36:26;;;;;;;1999.90;986.90;;;11.60;1.00;;;;;;5054088;28;20040;-83
2022/08/06 02:39:29;;;;;;;1961.70;967.28;;;11.50;1.00;;;;;;5052979;28;20053;-84
2022/08/06 02:42:22;;;;;;;1967.47;961.88;;;12.00;1.00;;;;;;5031321;28;20118;-83
2022/08/06 02:44:55;;;;;;;1955.43;881.42;;;11.50;1.00;;;;;;5052956;28;20103;-83
2022/08/06 02:47:32;;;;;;;1718.93;776.83;;;11.50;1.00;;;;;;5052855;28;20075;-82
2022/08/06 02:50:02;;;;;;;1756.38;840.30;;;11.50;1.00;;;;;;5053731;28;20091;-82
2022/08/06 02:52:53;;;;;;;1895.85;883.17;;;12.60;1.00;;;;;;5051607;28;20391;-84
2022/08/06 02:55:23;;;;;;;1862.72;833.15;;;11.50;1.00;;;;;;5053248;28;20045;-83
2022/08/06 02:57:57;;;;;;;1772.03;780.28;;;11.40;1.00;;;;;;5068454;28;20048;-83
2022/08/06 03:00:23;;;;;;;1715.30;809.70;;;11.40;1.00;;;;;;5053913;28;20505;-82
2022/08/06 03:02:55;;;;;;;1960.05;856.50;;;11.40;1.00;;;;;;5053087;28;20053;-83
2022/08/06 03:05:22;;;;;;;1761.10;783.22;;;11.40;1.00;;;;;;5068246;28;20044;-83
2022/08/06 03:07:51;;;;;;;1528.53;752.80;;;11.40;1.00;;;;;;5072499;28;20500;-83
2022/08/06 03:10:22;;;;;;;1796.50;918.47;;;11.30;1.00;;;;;;5072992;28;20040;-83
2022/08/06 03:12:50;;;;;;;1962.85;861.67;;;11.70;1.00;;;;;;5072829;28;20201;-82
2022/08/06 03:15:18;;;;;;;1886.38;876.47;;;12.00;1.00;;;;;;5073209;28;20048;-84
2022/08/06 03:17:43;;;;;;;;;;;11.30;1.00;;;;;;5073381;28;20055;-82
2022/08/06 03:20:12;;;;;;;1999.90;999.90;;;11.40;1.00;;;;;;5073178;28;19926;-82
2022/08/06 03:22:39;;;;;;;1492.80;720.95;;;11.30;1.00;;;;;;5072173;28;20084;-83
2022/08/06 03:25:08;;;;;;;1999.90;999.90;;;11.70;1.00;;;;;;5072625;28;20058;-82
2022/08/06 03:27:35;;;;;;;1562.40;753.88;;;11.30;1.00;;;;;;5072581;28;20285;-83
2022/08/06 03:30:01;;;;;;;1540.38;727.53;;;11.20;1.00;;;;;;5064274;28;20376;-83
2022/08/06 03:32:27;;;;;;;1826.63;913.65;;;12.60;1.00;;;;;;5052985;28;20049;-88
2022/08/06 03:34:54;;;;;;;1431.53;700.90;;;11.20;1.00;;;;;;5052950;28;20088;-82
2022/08/06 03:37:22;;;;;;;1729.83;792.83;;;11.20;1.00;;;;;;5052327;28;20241;-82
2022/08/06 03:39:49;;;;;;;1641.88;746.50;;;11.20;1.00;;;;;;5050892;28;20436;-83
2022/08/06 03:42:15;;;;;;;1727.53;858.42;;;11.10;1.00;;;;;;5052707;28;20111;-82
2022/08/06 03:44:41;;;;;;;1559.65;678.63;;;11.10;1.00;;;;;;5051490;28;20492;-82
2022/08/06 03:47:19;;;;;;;1386.88;641.83;;;11.20;1.00;;;;;;5052664;28;20048;-82
2022/08/06 03:49:50;;;;;;;1920.28;830.03;;;11.20;1.60;;;;;;5051884;28;20079;-82
2022/08/06 03:52:21;;;;;;;1709.72;999.90;;;11.20;3.40;;;;;;5052241;28;20049;-82
2022/08/06 03:54:52;;;;;;;1687.00;907.40;;;11.10;4.00;;;;;;5051778;28;20566;-82
2022/08/06 03:57:22;;;;;;;1600.05;841.28;;;11.10;4.40;;;;;;5052526;28;20049;-83
2022/08/06 03:59:51;;;;;;;1659.97;969.55;;;12.10;8.70;;;;;;5052153;28;20166;-82
2022/08/06 04:02:19;;;;;;;1602.40;921.45;;;12.80;10.50;;;;;;5051791;28;20186;-82
2022/08/06 04:04:46;;;;;;;1603.30;994.40;;;11.10;15.60;;;;;;5061762;28;20127;-83
2022/08/06 04:07:15;;;;;;;1632.68;942.33;;;11.10;13.00;;;;;;5070903;28;20447;-82
2022/08/06 04:09:43;;;;;;;1718.95;940.78;;;12.50;45.30;;;;;;5071757;28;20048;-83
2022/08/06 04:12:09;;;;;;;1908.80;984.95;;;11.10;38.60;;;;;;5072419;28;20045;-82
2022/08/06 04:14:35;;;;;;;1885.28;964.53;;;12.70;99.30;;;;;;5072032;28;20052;-82
2022/08/06 04:17:03;;;;;;;1811.38;990.10;;;11.10;96.80;;;;;;5072185;28;20550;-83
2022/08/06 04:19:30;;;;;;;1709.47;991.65;;;11.10;99.90;;;;;;5071193;28;20048;-82
2022/08/06 04:21:56;;;;;;;1696.50;964.97;;;11.10;99.90;;;;;;5070872;28;20470;-83
2022/08/06 04:24:22;;;;;;;1683.18;852.10;;;11.10;99.90;;;;;;5072011;28;20101;-83
2022/08/06 04:26:53;;;;;;;1920.90;999.70;;;11.10;99.90;;;;;;5054153;28;20458;-82
2022/08/06 04:29:20;;;;;;;1843.53;961.28;;;11.10;99.90;;;;;;5072321;28;20044;-82
2022/08/06 04:31:50;;;;;;;1999.90;999.90;;;11.10;99.90;;;;;;5071918;28;20055;-82
2022/08/06 04:34:25;;;;;;;1595.35;796.22;;;11.10;96.90;;;;;;5072252;28;20123;-82
2022/08/06 04:36:52;;;;;;;1857.82;953.80;;;11.10;94.70;;;;;;5071560;28;20064;-83
2022/08/06 04:39:19;;;;;;;1911.80;934.28;;;11.10;90.70;;;;;;5070780;28;20065;-83
2022/08/06 04:41:45;;;;;;;1686.82;826.13;;;11.10;86.00;;;;;;5052885;28;20048;-83
2022/08/06 04:44:11;;;;;;;1916.53;960.95;;;11.10;84.10;;;;;;5051913;28;20539;-82
2022/08/06 04:46:38;;;;;;;1924.68;934.67;;;11.10;79.20;;;;;;5051463;28;20052;-82
2022/08/06 04:49:04;;;;;;;1989.65;996.83;;;11.10;73.80;;;;;;5052097;28;20063;-82
2022/08/06 04:51:30;;;;;;;1936.95;999.90;;;11.20;92.50;;;;;;5051114;28;20436;-82
2022/08/06 04:53:56;;;;;;;1999.90;999.90;;;11.80;95.00;;;;;;5050828;28;20128;-82
2022/08/06 04:56:22;;;;;;;1998.70;999.90;;;11.30;95.10;;;;;;5052004;28;20067;-82
2022/08/06 04:58:47;;;;;;;1999.90;999.90;;;11.40;96.60;;;;;;5051408;28;20500;-82
2022/08/06 05:01:13;;;;;;;1999.90;999.90;;;11.40;98.50;;;;;;5052949;28;20049;-82
2022/08/06 05:03:39;;;;;;;1999.90;999.90;;;11.40;97.70;;;;;;5055324;28;20144;-81
2022/08/06 05:06:42;;;;;;;1999.90;999.90;;;11.40;94.90;;;;;;5075820;28;20040;-81
2022/08/06 05:09:13;;;;;;;1998.93;999.90;;;11.50;99.90;;;;;;5074786;28;20051;-81
2022/08/06 05:11:47;;;;;;;1999.90;999.90;;;11.60;99.90;;;;;;5075266;28;20083;-82
2022/08/06 05:14:24;;;;;;;1954.10;999.90;;;11.60;99.90;;;;;;5075658;28;20080;-81
2022/08/06 05:16:51;;;;;;;1981.88;999.90;;;11.70;99.90;;;;;;5075031;28;20401;-82
2022/08/06 05:19:28;;;;;;;1918.05;999.90;;;12.80;99.90;;;;;;5075457;28;20048;-81
2022/08/06 05:21:57;;;;;;;1822.40;999.90;;;11.80;99.90;;;;;;5074656;28;20032;-82
2022/08/06 05:24:24;;;;;;;1991.18;999.90;;;11.80;99.90;;;;;;5074944;28;20048;-82
2022/08/06 05:26:49;;;;;;;1999.90;999.90;;;11.80;99.90;;;;;;5073674;28;20086;-81
2022/08/06 05:29:20;;;;;;;1999.90;999.90;;;11.80;99.90;;;;;;5071197;28;20132;-81
2022/08/06 05:31:46;;;;;;;1999.90;999.90;;;11.80;99.90;;;;;;5054800;28;20049;-82
2022/08/06 05:34:12;;;;;;;1999.90;999.90;;;11.90;97.70;;;;;;5055089;28;20053;-81
2022/08/06 05:36:39;;;;;;;1999.90;999.90;;;11.90;92.00;;;;;;5054782;28;20406;-84
2022/08/06 05:39:06;;;;;;;1999.90;999.90;;;12.60;99.90;;;;;;5054208;28;20444;-82
2022/08/06 05:41:34;;;;;;;1999.90;999.90;;;12.00;99.90;;;;;;5055017;28;20044;-82
2022/08/06 05:44:01;;;;;;;1999.90;999.90;;;12.20;99.90;;;;;;5069893;28;20053;-82
2022/08/06 05:46:34;;;;;;;1892.05;999.90;;;12.10;99.90;;;;;;5055291;28;20134;-82
2022/08/06 05:49:26;;;;;;;1989.50;999.90;;;12.30;99.90;;;;;;5054483;28;20089;-83
2022/08/06 05:51:51;;;;;;;1999.90;999.90;;;12.20;99.90;;;;;;5050538;28;20106;-84
2022/08/06 05:54:35;;;;;;;1999.90;999.90;;;12.90;99.90;;;;;;5053423;28;20053;-83
2022/08/06 05:57:09;;;;;;;1999.90;999.90;;;12.30;99.90;;;;;;5054358;28;20611;-83
2022/08/06 05:59:39;;;;;;;1999.90;999.90;;;12.40;99.90;;;;;;5054582;28;20041;-83
2022/08/06 06:02:06;;;;;;;1999.90;999.90;;;12.50;99.90;;;;;;5053999;28;20138;-83
2022/08/06 06:04:32;;;;;;;1996.72;988.38;;;12.50;99.90;;;;;;5062701;28;20443;-83
2022/08/06 06:06:59;;;;;;;1840.88;999.90;;;12.60;99.90;;;;;;5073748;28;20068;-83
2022/08/06 06:09:26;;;;;;;1999.90;999.90;;;12.60;99.90;;;;;;5074130;28;20472;-83
2022/08/06 06:11:52;;;;;;;1919.53;999.90;;;12.70;99.90;;;;;;5073591;28;20045;-83
2022/08/06 06:14:40;;;;;;;1999.90;999.90;;;12.80;99.90;;;;;;5073512;28;20052;-84
2022/08/06 06:17:27;;;;;;;1999.90;999.90;;;13.00;99.90;;;;;;5073966;28;20523;-82
2022/08/06 06:20:13;;;;;;;1999.90;999.90;;;13.30;99.90;;;;;;5073950;28;20378;-82
2022/08/06 06:22:45;;;;;;;1942.80;999.90;;;13.40;99.90;;;;;;5056163;28;20048;-82
2022/08/06 06:25:29;;;;;;;1999.90;999.90;;;13.40;99.90;;;;;;5072883;28;20401;-82
2022/08/06 06:28:22;;;;;;;1999.90;969.05;;;13.40;99.90;;;;;;5072605;28;20056;-82
2022/08/06 06:30:55;;;;;;;1894.88;891.20;;;13.50;99.90;;;;;;5074084;28;20132;-83
2022/08/06 06:33:28;;;;;;;1788.47;999.90;;;13.50;99.90;;;;;;5056053;28;20139;-82
2022/08/06 06:36:02;;;;;;;1879.47;999.90;;;13.40;99.90;;;;;;5073729;28;20044;-82
2022/08/06 06:39:03;;;;;;;1999.90;999.90;;;13.50;99.90;;;;;;5073104;28;20393;-85
2022/08/06 06:42:07;;;;;;;1942.63;994.45;;;13.60;99.90;;;;;;5073066;28;20062;-83
2022/08/06 06:44:54;;;;;;;1613.15;999.90;;;13.60;99.90;;;;;;5031360;28;20045;-82
2022/08/06 06:47:31;;;;;;;1999.90;999.90;;;13.70;99.90;;;;;;5070526;28;20064;-82
2022/08/06 06:50:17;;;;;;;1575.07;999.90;;;13.80;99.90;;;;;;5052026;28;20057;-81
2022/08/06 06:52:46;;;;;;;1626.88;999.90;;;13.90;99.30;;;;;;5053306;28;20076;-81
2022/08/06 06:55:37;;;;;;;1854.00;999.90;;;14.00;99.90;;;;;;5052320;28;20084;-80
2022/08/06 06:58:08;;;;;;;1999.90;999.90;;;14.20;91.60;;;;;;5053163;28;20070;-80
2022/08/06 07:00:36;;;;;;;1999.90;999.90;;;14.20;86.00;;;;;;5053478;28;20056;-80
2022/08/06 07:03:03;;;;;;;1999.90;999.90;;;14.50;21.60;;;;;;5052922;28;20575;-83
2022/08/06 07:05:32;;;;;;;1991.03;999.90;;;14.50;28.50;;;;;;5069196;28;20098;-81
2022/08/06 07:08:00;;;;;;;1999.90;999.90;;;14.60;39.10;;;;;;5071077;28;20378;-81
2022/08/06 07:10:27;;;;;;;1897.15;999.90;;;15.00;25.10;;;;;;5072533;28;20164;-80
2022/08/06 07:12:54;;;;;;;1999.90;999.90;;;16.60;1.00;;;;;;5072910;28;20052;-83
2022/08/06 07:15:22;;;;;;;1910.85;955.88;;;18.20;1.00;;;;;;5055642;28;20056;-81
2022/08/06 07:17:50;;;;;;;1999.90;999.90;;;19.70;99.90;;;;;;5072165;28;20128;-82
2022/08/06 07:20:24;;;;;;;1156.55;968.33;;;20.90;99.90;;;;;;5072138;28;20048;-81
2022/08/06 07:22:52;;;;;;;965.45;879.58;;;22.00;99.90;;;;;;5070926;28;20044;-81
2022/08/06 07:25:20;;;;;;;;;;;22.70;99.90;;;;;;5072552;28;20044;-81
2022/08/06 07:27:49;;;;;;;715.20;662.10;;;23.20;94.60;;;;;;5071791;28;20308;-80
2022/08/06 07:30:17;;;;;;;855.95;782.90;;;24.00;22.10;;;;;;5077509;28;20056;-81
2022/08/06 07:32:45;;;;;;;749.78;694.72;;;24.80;43.40;;;;;;5051833;28;20053;-81
2022/08/06 07:35:13;;;;;;;918.38;827.45;;;25.20;1.00;;;;;;5052537;28;20128;-81
2022/08/06 07:37:44;;;;;;;1999.90;999.90;;;25.80;1.00;;;;;;5052327;28;20053;-80
2022/08/06 07:40:18;;;;;;;845.25;753.28;;;26.20;1.00;;;;;;5052100;28;20262;-80
2022/08/06 07:42:47;;;;;;;436.08;388.83;;;26.40;1.00;;;;;;5052678;28;20045;-81
2022/08/06 07:45:13;;;;;;;1587.15;816.83;;;26.60;1.00;;;;;;5052329;28;20080;-81
2022/08/06 07:47:42;;;;;;;1999.90;999.90;;;27.00;1.00;;;;;;5052646;28;20176;-81
2022/08/06 07:50:12;;;;;;;1999.90;999.90;;;27.80;1.00;;;;;;5052010;28;20521;-81
2022/08/06 07:52:40;;;;;;;1999.90;999.90;;;28.40;1.00;;;;;;5052227;28;20041;-81
2022/08/06 07:55:07;;;;;;;;;;;28.80;1.00;;;;;;5052337;28;20045;-81
2022/08/06 07:57:33;;;;;;;1999.90;999.90;;;28.40;1.00;;;;;;5050966;28;19922;-81
2022/08/06 07:59:59;;;;;;;1999.90;999.90;;;28.90;1.00;;;;;;5067770;28;20190;-81
2022/08/06 08:02:25;;;;;;;1999.90;999.90;;;28.20;1.00;;;;;;5052224;28;20049;-81
2022/08/06 08:07:36;;;;;;;1999.90;999.90;;;27.30;1.00;;;;;;5072150;28;20409;-82
2022/08/06 08:10:03;;;;;;;1999.90;999.90;;;28.00;1.00;;;;;;5071631;28;20135;-81
2022/08/06 08:12:29;;;;;;;1999.90;999.90;;;28.40;1.00;;;;;;5054486;28;20046;-81
2022/08/06 08:14:56;;;;;;;1999.90;999.90;;;29.20;1.00;;;;;;5071990;28;20044;-81
2022/08/06 08:17:22;;;;;;;1999.90;999.90;;;28.90;1.00;;;;;;5071252;28;20052;-81
2022/08/06 08:19:48;;;;;;;1999.90;999.90;;;29.60;1.00;;;;;;5058266;28;20502;-81
2022/08/06 08:22:17;;;;;;;1999.90;999.90;;;28.70;1.00;;;;;;5033818;28;20048;-83
2022/08/06 08:24:46;;;;;;;1999.90;999.90;;;27.70;1.00;;;;;;5051812;28;20045;-81
2022/08/06 08:27:15;;;;;;;1999.90;999.90;;;26.70;1.00;;;;;;5051627;28;20136;-82
2022/08/06 08:29:41;;;;;;;1999.90;999.90;;;25.80;1.00;;;;;;5034577;28;20454;-81
2022/08/06 08:32:08;;;;;;;1999.90;999.90;;;25.00;1.00;;;;;;5051756;28;20095;-82
2022/08/06 08:34:38;;;;;;;1999.90;999.90;;;24.00;1.00;;;;;;5067867;28;20048;-81
2022/08/06 08:37:04;;;;;;;1999.90;999.90;;;23.10;1.00;;;;;;5054359;28;20462;-82
2022/08/06 08:39:30;;;;;;;1999.90;999.90;;;22.40;1.00;;;;;;5055835;28;20123;-82
2022/08/06 08:42:08;;;;;;;1999.90;999.90;;;21.60;1.00;;;;;;5055930;28;20368;-82
2022/08/06 08:44:34;;;;;;;;;;;21.60;1.00;;;;;;5056648;28;20041;-82
2022/08/06 08:47:02;;;;;;;1999.90;999.90;;;23.00;1.00;;;;;;5054530;28;19921;-82
2022/08/06 08:49:32;;;;;;;1999.90;999.90;;;24.70;1.00;;;;;;5055655;28;20512;-82
2022/08/06 08:52:00;;;;;;;1999.90;999.90;;;26.40;1.00;;;;;;5055152;28;20045;-82
2022/08/06 08:54:29;;;;;;;1999.90;999.90;;;27.20;1.00;;;;;;5055654;28;20404;-80
2022/08/06 08:56:55;;;;;;;1999.90;999.90;;;27.80;1.00;;;;;;5055554;28;20441;-81
2022/08/06 08:59:22;;;;;;;1999.90;999.90;;;28.40;1.00;;;;;;5055466;28;20045;-81
2022/08/06 09:01:48;;;;;;;1999.90;999.90;;;29.20;1.00;;;;;;5055529;28;20124;-85
2022/08/06 09:04:14;;;;;;;1999.90;999.90;;;29.40;1.00;;;;;;5060918;28;20045;-82
2022/08/06 09:06:40;;;;;;;1999.90;999.90;;;29.00;1.00;;;;;;5075758;28;20049;-82
2022/08/06 09:09:06;;;;;;;1999.90;999.90;;;28.10;1.00;;;;;;5074457;28;20048;-81
2022/08/06 09:11:33;;;;;;;1999.90;999.90;;;26.80;1.00;;;;;;5075627;28;20101;-82
2022/08/06 09:14:01;;;;;;;1999.90;999.90;;;25.50;1.00;;;;;;5057531;28;20135;-85
2022/08/06 09:16:28;;;;;;;;;;;24.70;1.00;;;;;;5076113;28;20048;-83
2022/08/06 09:18:53;;;;;;;1999.90;999.90;;;25.10;1.00;;;;;;5075412;28;19920;-82
2022/08/06 09:21:19;;;;;;;1999.90;999.90;;;26.40;1.00;;;;;;5075399;28;20352;-82
2022/08/06 09:23:45;;;;;;;1999.90;999.90;;;28.00;1.00;;;;;;5074395;28;20478;-86
2022/08/06 09:26:10;;;;;;;1999.90;999.90;;;28.30;1.00;;;;;;5075010;28;20075;-86
2022/08/06 09:28:42;;;;;;;876.38;808.80;;;28.90;1.00;;;;;;5057282;28;20040;-86
2022/08/06 09:31:11;;;;;;;1999.90;999.90;;;29.50;1.00;;;;;;5075105;28;20443;-85
2022/08/06 09:33:42;;;;;;;1999.90;999.90;;;29.40;1.00;;;;;;5075052;28;20040;-86
2022/08/06 09:36:13;;;;;;;1999.90;999.90;;;28.10;1.00;;;;;;5074859;28;20094;-87
2022/08/06 09:38:51;;;;;;;1999.90;999.90;;;26.90;1.00;;;;;;5070132;28;20068;-89
2022/08/06 09:41:19;;;;;;;1999.90;999.90;;;26.00;1.00;;;;;;5054780;28;20132;-90
2022/08/06 09:43:48;;;;;;;661.03;609.67;;;26.70;1.00;;;;;;5054163;28;20064;-91
2022/08/06 09:46:17;;;;;;;1370.93;839.65;;;27.80;1.00;;;;;;5053856;28;20485;-94
2022/08/06 09:48:59;;;;;;;1999.90;999.90;;;28.20;1.00;;;;;;5069930;28;20095;-92
2022/08/06 09:51:26;;;;;;;1999.90;999.90;;;27.90;1.00;;;;;;5064665;28;20083;-92
2022/08/06 09:53:59;;;;;;;1999.90;999.90;;;28.10;1.00;;;;;;5066738;28;20047;-93
2022/08/06 09:56:26;;;;;;;1999.90;999.90;;;28.00;1.00;;;;;;5055121;28;20283;-92
2022/08/06 09:59:08;;;;;;;1999.90;999.90;;;28.40;1.00;;;;;;5054523;28;20128;-92
2022/08/06 10:01:42;;;;;;;989.58;697.92;;;29.10;1.00;;;;;;5036697;28;20397;-89
2022/08/06 10:04:25;;;;;;;1999.90;999.90;;;28.70;1.00;;;;;;5069420;28;20142;-88
2022/08/06 10:06:59;;;;;;;597.63;556.78;;;29.00;1.00;;;;;;5070254;28;20083;-86
2022/08/06 10:09:25;;;;;;;1999.90;999.90;;;29.90;1.00;;;;;;5052614;28;20335;-86
2022/08/06 10:11:52;;;;;;;363.05;341.40;;;31.20;1.00;;;;;;5053174;28;20060;-87
2022/08/06 10:14:24;;;;;;;400.58;376.50;;;32.10;1.00;;;;;;5052918;28;20037;-86
2022/08/06 10:17:09;;;;;;;534.63;500.50;;;33.00;1.00;;;;;;5053349;28;20056;-85
2022/08/06 10:19:39;;;;;;;367.75;344.67;;;33.60;1.00;;;;;;5053288;28;20525;-85
2022/08/06 10:22:14;;;;;;;360.48;339.45;;;33.80;1.00;;;;;;5053981;28;20048;-81
2022/08/06 10:24:46;;;;;;;359.27;338.10;;;33.50;1.00;;;;;;5053935;28;20044;-83
2022/08/06 10:27:15;;;;;;;1999.90;999.90;;;32.70;1.00;;;;;;5036190;28;20500;-83
2022/08/06 10:30:02;;;;;;;390.30;367.50;;;32.00;1.00;;;;;;5054282;28;20057;-83
2022/08/06 10:32:50;;;;;;;469.17;439.77;;;31.10;1.00;;;;;;5053707;28;20087;-83
2022/08/06 10:35:18;;;;;;;524.05;490.33;;;29.60;99.90;;;;;;5054024;28;20109;-82
2022/08/06 10:37:45;;;;;;;;;;;28.40;99.90;;;;;;5052937;28;20413;-83
2022/08/06 10:40:13;;;;;;;1447.53;907.90;;;27.30;99.90;;;;;;5053154;28;20014;-83
2022/08/06 10:42:39;;;;;;;1999.90;999.90;;;26.20;1.00;;;;;;5052467;28;20155;-82
2022/08/06 10:45:07;;;;;;;1999.90;999.90;;;25.60;1.00;;;;;;5069370;28;20067;-83
2022/08/06 10:47:34;;;;;;;1999.90;999.90;;;25.10;1.00;;;;;;5052449;28;20049;-83
2022/08/06 10:50:01;;;;;;;1999.90;999.90;;;24.70;1.00;;;;;;5069282;28;20056;-84
2022/08/06 10:52:28;;;;;;;1999.90;999.90;;;24.40;1.00;;;;;;5052642;28;20504;-83
2022/08/06 10:54:56;;;;;;;1999.90;999.90;;;24.30;1.00;;;;;;5052290;28;20323;-84
2022/08/06 10:57:22;;;;;;;1999.90;999.90;;;24.20;1.00;;;;;;5053247;28;20057;-84
2022/08/06 10:59:48;;;;;;;1999.90;999.90;;;24.20;1.00;;;;;;5052633;28;20041;-85
2022/08/06 11:02:29;;;;;;;1999.90;999.90;;;24.40;1.00;;;;;;5068136;28;20559;-86
2022/08/06 11:05:00;;;;;;;1999.90;999.90;;;24.60;1.00;;;;;;5064649;28;20052;-87
2022/08/06 11:07:54;;;;;;;1999.90;999.90;;;25.10;1.00;;;;;;5071421;28;20055;-88
2022/08/06 11:10:55;;;;;;;1143.35;835.40;;;25.30;1.00;;;;;;5050587;28;20183;-87
2022/08/06 11:13:32;;;;;;;1999.90;999.90;;;25.20;1.00;;;;;;5051932;28;20056;-90
2022/08/06 11:15:58;;;;;;;1225.25;703.08;;;25.10;1.00;;;;;;5052460;28;20547;-90
2022/08/06 11:18:24;;;;;;;1999.90;999.90;;;25.20;1.00;;;;;;5035313;28;20091;-92
2022/08/06 11:20:52;;;;;;;1999.90;999.90;;;25.40;1.00;;;;;;5053297;28;20067;-92
2022/08/06 11:23:18;;;;;;;1999.90;999.90;;;25.70;1.00;;;;;;5052287;28;20045;-93
2022/08/06 11:25:45;;;;;;;1999.90;999.90;;;26.50;1.00;;;;;;5052850;28;20063;-93
2022/08/06 11:28:12;;;;;;;1999.90;999.90;;;28.10;1.00;;;;;;5068770;28;20049;-92
2022/08/06 11:30:50;;;;;;;372.38;350.27;;;29.80;1.00;;;;;;5051832;28;20474;-91
2022/08/06 11:33:20;;;;;;;350.55;329.75;;;31.30;1.00;;;;;;5052827;28;20132;-85
2022/08/06 11:35:48;;;;;;;333.55;313.27;;;32.80;1.00;;;;;;5053315;28;20052;-90
2022/08/06 11:38:36;;;;;;;392.08;369.05;;;33.10;99.90;;;;;;5052377;28;20080;-88
2022/08/06 11:41:08;;;;;;;429.38;399.85;;;33.70;99.90;;;;;;5051823;28;20048;-89
2022/08/06 11:43:56;;;;;;;404.50;376.45;;;33.10;99.90;;;;;;5052287;28;20055;-89
2022/08/06 11:46:36;;;;;;;597.28;552.97;;;31.90;99.90;;;;;;5048286;28;20068;-89
2022/08/06 11:49:06;;;;;;;1597.30;839.70;;;30.50;99.90;;;;;;5051625;28;20057;-88
2022/08/06 11:51:56;;;;;;;574.17;529.03;;;28.80;99.90;;;;;;5052656;28;20045;-89
2022/08/06 11:54:27;;;;;;;407.48;371.67;;;28.30;99.90;;;;;;5034279;28;20055;-88
2022/08/06 11:57:04;;;;;;;1499.45;952.53;;;27.40;99.90;;;;;;5051444;28;20572;-88
2022/08/06 11:59:53;;;;;;;1999.90;999.90;;;26.70;99.90;;;;;;5050989;28;20045;-88
2022/08/06 12:02:41;;;;;;;1999.90;999.90;;;26.30;99.90;;;;;;5034217;28;20148;-90
2022/08/06 12:05:13;;;;;;;1999.90;999.90;;;26.00;99.90;;;;;;5047545;28;20051;-87
2022/08/06 12:07:40;;;;;;;1999.90;999.90;;;25.70;99.90;;;;;;5053816;28;20093;-87
2022/08/06 12:10:06;;;;;;;1999.90;999.90;;;25.50;99.90;;;;;;5053657;28;20047;-88
2022/08/06 12:12:38;;;;;;;1999.90;999.90;;;25.40;99.90;;;;;;5054099;28;20139;-87
2022/08/06 12:15:13;;;;;;;1999.90;999.90;;;25.30;99.90;;;;;;5054586;28;20389;-87
2022/08/06 12:17:54;;;;;;;1999.90;999.90;;;25.40;1.00;;;;;;5053971;28;20090;-86
2022/08/06 12:20:38;;;;;;;1999.90;999.90;;;25.50;99.90;;;;;;5036191;28;20128;-86
2022/08/06 12:23:08;;;;;;;1999.90;999.90;;;25.50;99.90;;;;;;5033541;28;20131;-86
2022/08/06 12:25:46;;;;;;;1999.90;999.90;;;25.60;99.90;;;;;;5050291;28;20089;-86
2022/08/06 12:28:14;;;;;;;1999.90;999.90;;;25.90;1.00;;;;;;5051049;28;20040;-87
2022/08/06 12:30:51;;;;;;;1999.90;999.90;;;26.00;99.90;;;;;;5067637;28;20133;-87